Bronson, IA (51007)

8:37 PM CST on December 26, 2014 (GMT -0600)
Sioux Gateway | Change Station
CLOSE
Current Station
Airport
Location: Sioux City,
Elevation: 1102 ft
Nearby Weather Stations
Active Advisory: Winter Weather Advisory

Elev 1102 ft 42.39 °N, 96.38 °W | Updated 11 minutes ago

Snow
Snow
29 °F
Feels Like 18 °F
N
14
Wind Variable Wind from North

Today
High -- | Low -- °F
--% Chance of Precip.
Yesterday
High -- | Low -- °F
Precip. -- in
7:53 AM 4:58 PM
Waxing Crescent, 31% visible
Pressure 30.05 in
Visibility 1.8 miles
Clouds Few 700 ft
Mostly Cloudy 1000 ft
Overcast 2000 ft
Windchill 18 °F
Dew Point 26 °F
Humidity 89%
Rainfall 0.00 in
Snow Depth Not available.
UV 0 out of 12
Pollen .10 out of 12
Air Quality Not available.
Flu Activity Not available.
SPECI KSUX 270226Z 36012KT 1 3/4SM -SN BR FEW007 BKN010 OVC020 M02/M03 A3005 RMK AO2 P0002 T10171033

More Conditions Fewer Conditions

Pressure 30.05 in
Visibility 1.8 miles
Clouds Few 700 ft
Mostly Cloudy 1000 ft
Overcast 2000 ft
Windchill 18 °F
Dew Point 26 °F
Humidity 89%
Rainfall 0.00 in
Snow Depth Not available.
UV 0 out of 12
Pollen .10 out of 12
Air Quality Not available.
Flu Activity Not available.
SPECI KSUX 270226Z 36012KT 1 3/4SM -SN BR FEW007 BKN010 OVC020 M02/M03 A3005 RMK AO2 P0002 T10171033

More Conditions Fewer Conditions

10-Day Weather Forecast

Almanac

Astronomy

Dec. 26, 2014 Rise Set
Actual Time
Civil Twilight
Nautical Twilight
Astronomical Twilight
Moon
Length of Visible Light
Length of Day
Tomorrow will be .
, % of the Moon is Illuminated

Today's Extremes

State Highs State Lows

Community

WunderPhotos

Upload Photos

1,780,815 photos uploaded!

WunderBlogs® & News

Nearby

Air Quality

  Air Quality AQ Index Pollutant
Not available.

Snow Depth

Station Depth Elevation

Earthquake Activity

City Distance Mag. Time & Date
Minimum magnitude displayed is 2.5.

Coastal Water Temperatures

Place Temperature

Nearby Weather Stations